createdAt,value
2019-03-12T00:03:15.818Z,3.30
2019-03-12T00:08:19.192Z,3.30
2019-03-12T00:13:22.575Z,3.30
2019-03-12T00:18:28.426Z,3.20
2019-03-12T00:23:31.071Z,3.20
2019-03-12T00:28:34.451Z,3.20
2019-03-12T00:33:37.840Z,3.20
2019-03-12T00:38:41.215Z,3.20
2019-03-12T00:43:44.595Z,3.20
2019-03-12T00:48:47.980Z,3.20
2019-03-12T00:53:51.388Z,3.20
2019-03-12T00:58:54.771Z,3.20
2019-03-12T01:03:58.155Z,3.20
2019-03-12T01:09:01.549Z,3.20
2019-03-12T01:14:05.000Z,3.20
2019-03-12T01:19:08.380Z,3.20
2019-03-12T01:24:11.767Z,3.20
2019-03-12T01:29:15.145Z,3.20
2019-03-12T01:34:18.528Z,3.20
2019-03-12T01:39:21.907Z,3.20
2019-03-12T01:44:25.295Z,3.20
2019-03-12T01:49:28.692Z,3.20
2019-03-12T01:54:32.063Z,3.20
2019-03-12T01:59:35.449Z,3.20
2019-03-12T02:04:38.844Z,3.20
2019-03-12T02:09:42.233Z,3.20
2019-03-12T02:14:45.615Z,3.20
2019-03-12T02:19:49.011Z,3.20
2019-03-12T02:24:53.203Z,3.20
2019-03-12T02:29:56.763Z,3.20
2019-03-12T02:35:00.138Z,3.20
2019-03-12T02:40:04.253Z,3.20
2019-03-12T02:45:15.438Z,3.20
2019-03-12T02:50:18.826Z,3.20
2019-03-12T02:55:22.191Z,3.20
2019-03-12T03:00:26.660Z,3.20
2019-03-12T03:05:30.792Z,3.20
2019-03-12T03:10:34.179Z,3.20
2019-03-12T03:15:39.232Z,3.20
2019-03-12T03:20:42.598Z,3.20
2019-03-12T03:25:45.997Z,3.20
2019-03-12T03:30:49.485Z,3.20
2019-03-12T03:35:52.941Z,3.20
2019-03-12T03:40:56.391Z,3.20
2019-03-12T03:45:59.765Z,3.20
2019-03-12T03:51:03.158Z,3.20
2019-03-12T03:56:06.554Z,3.20
2019-03-12T04:01:09.961Z,3.20
2019-03-12T04:06:13.349Z,3.20
2019-03-12T04:11:16.736Z,3.20
2019-03-12T04:16:20.117Z,3.20
2019-03-12T04:21:23.501Z,3.20
2019-03-12T04:26:26.890Z,3.20
2019-03-12T04:31:30.263Z,3.20
2019-03-12T04:36:33.651Z,3.20
2019-03-12T04:41:37.046Z,3.20
2019-03-12T04:46:40.428Z,3.20
2019-03-12T04:51:43.819Z,3.20
2019-03-12T04:56:47.209Z,3.20
2019-03-12T05:01:50.590Z,3.20
2019-03-12T05:06:53.980Z,3.20
2019-03-12T05:11:57.367Z,3.20
2019-03-12T05:17:03.989Z,3.20
2019-03-12T05:22:07.363Z,3.20
2019-03-12T05:27:10.743Z,3.20
2019-03-12T05:32:14.131Z,3.20
2019-03-12T05:37:17.520Z,3.20
2019-03-12T05:42:20.912Z,3.20
2019-03-12T05:47:24.306Z,3.20
2019-03-12T05:52:27.688Z,3.20
2019-03-12T05:57:31.146Z,3.20
2019-03-12T06:02:34.533Z,3.20
2019-03-12T06:07:37.926Z,3.20
2019-03-12T06:12:41.303Z,3.20
2019-03-12T06:17:44.693Z,3.20
2019-03-12T06:22:48.080Z,3.20
2019-03-12T06:27:51.470Z,3.20
2019-03-12T06:32:59.405Z,3.20
2019-03-12T06:38:06.869Z,3.20
2019-03-12T06:43:26.723Z,3.20
2019-03-12T06:48:37.404Z,3.20
2019-03-12T06:53:45.367Z,3.30
2019-03-12T06:59:06.395Z,3.30
2019-03-12T07:04:23.520Z,3.30
2019-03-12T07:09:28.531Z,3.30
2019-03-12T07:14:48.158Z,3.40
2019-03-12T07:19:53.196Z,3.40
2019-03-12T07:25:00.921Z,3.40
2019-03-12T07:30:13.106Z,3.40
2019-03-12T07:35:34.431Z,3.50
2019-03-12T07:40:42.356Z,3.50
2019-03-12T07:45:50.033Z,3.60
2019-03-12T07:50:58.023Z,3.60
2019-03-12T07:56:09.092Z,3.70
2019-03-12T08:01:25.022Z,3.70
2019-03-12T08:06:44.541Z,3.70
2019-03-12T08:11:49.571Z,3.80
2019-03-12T08:16:54.604Z,3.90
2019-03-12T08:21:59.627Z,3.90
2019-03-12T08:27:10.411Z,4.00
2019-03-12T08:32:18.498Z,4.10
2019-03-12T08:37:23.519Z,4.20
2019-03-12T08:42:28.547Z,4.30
2019-03-12T08:47:36.314Z,4.50
2019-03-12T08:52:50.034Z,4.80
2019-03-12T08:58:10.103Z,5.10
2019-03-12T09:03:33.124Z,5.50
2019-03-12T09:08:56.225Z,6.00
2019-03-12T09:14:01.240Z,6.50
2019-03-12T09:19:06.335Z,6.90
2019-03-12T09:24:20.315Z,7.20
2019-03-12T09:29:34.279Z,7.50
2019-03-12T09:34:55.564Z,7.70
2019-03-12T09:40:03.507Z,7.70
2019-03-12T09:45:16.328Z,7.80
2019-03-12T09:50:27.404Z,7.70
2019-03-12T09:55:50.310Z,7.70
2019-03-12T10:01:07.376Z,7.60
2019-03-12T10:06:12.422Z,7.50
2019-03-12T10:11:35.600Z,7.40
2019-03-12T10:16:58.403Z,7.40
2019-03-12T10:22:06.095Z,7.40
2019-03-12T10:27:11.134Z,7.30
2019-03-12T10:32:34.252Z,7.30
2019-03-12T10:37:41.968Z,7.30
2019-03-12T10:42:49.731Z,7.30
2019-03-12T10:48:00.843Z,7.40
2019-03-12T10:53:04.376Z,7.40
2019-03-12T10:58:07.766Z,7.50
2019-03-12T11:03:11.222Z,7.60
2019-03-12T11:08:14.688Z,7.80
2019-03-12T11:13:18.067Z,8.00
2019-03-12T11:18:21.447Z,8.30
2019-03-12T11:23:24.822Z,8.70
2019-03-12T11:28:28.207Z,9.10
2019-03-12T11:33:31.588Z,9.40
2019-03-12T11:38:34.975Z,9.70
2019-03-12T11:43:38.364Z,9.80
2019-03-12T11:48:41.754Z,10.00
2019-03-12T11:53:45.136Z,10.30
2019-03-12T11:58:48.516Z,10.50
2019-03-12T12:03:51.908Z,10.70
2019-03-12T12:08:55.294Z,10.90
2019-03-12T12:13:58.679Z,11.10
2019-03-12T12:19:02.064Z,11.30
2019-03-12T12:24:05.453Z,11.40
2019-03-12T12:29:08.843Z,11.60
2019-03-12T12:34:12.218Z,11.80
2019-03-12T12:39:15.603Z,11.80
2019-03-12T12:44:18.985Z,11.90
2019-03-12T12:49:22.369Z,11.90
2019-03-12T12:54:25.750Z,12.00
2019-03-12T12:59:29.211Z,12.20
2019-03-12T13:04:32.598Z,12.30
2019-03-12T13:09:35.988Z,12.40
2019-03-12T13:14:41.695Z,12.50
2019-03-12T13:19:44.602Z,12.60
2019-03-12T13:24:48.051Z,12.70
2019-03-12T13:29:51.439Z,12.80
2019-03-12T13:34:54.836Z,12.90
2019-03-12T13:39:58.393Z,13.00
2019-03-12T13:45:02.177Z,13.20
2019-03-12T13:50:09.008Z,13.20
2019-03-12T13:55:14.332Z,13.20
2019-03-12T14:00:20.244Z,13.20
2019-03-12T14:05:23.640Z,13.10
2019-03-12T14:10:27.802Z,13.20
2019-03-12T14:15:33.278Z,13.10
2019-03-12T14:20:41.143Z,13.10
2019-03-12T14:25:44.867Z,13.10
2019-03-12T14:30:48.503Z,13.10
2019-03-12T14:35:52.511Z,13.20
2019-03-12T14:40:55.983Z,13.10
2019-03-12T14:45:59.375Z,13.00
2019-03-12T14:51:03.044Z,13.10
2019-03-12T14:56:06.809Z,13.00
2019-03-12T15:01:10.192Z,12.80
2019-03-12T15:06:13.577Z,12.80
2019-03-12T15:11:17.061Z,12.80
2019-03-12T15:16:20.480Z,12.70
2019-03-12T15:21:23.872Z,12.70
2019-03-12T15:26:27.265Z,12.60
2019-03-12T15:31:30.652Z,12.50
2019-03-12T15:36:34.036Z,12.40
2019-03-12T15:41:37.419Z,12.30
2019-03-12T15:46:40.823Z,12.10
2019-03-12T15:51:44.228Z,12.00
2019-03-12T15:56:47.712Z,11.80
2019-03-12T16:01:51.090Z,11.60
2019-03-12T16:07:01.202Z,11.50
2019-03-12T16:11:59.583Z,11.30
2019-03-12T16:17:02.977Z,11.10
2019-03-12T16:22:06.379Z,11.00
2019-03-12T16:27:09.776Z,10.80
2019-03-12T16:32:13.171Z,10.70
2019-03-12T16:37:19.628Z,10.60
2019-03-12T16:42:34.622Z,10.50
2019-03-12T16:47:28.134Z,10.40
2019-03-12T16:52:31.520Z,10.20
2019-03-12T16:57:34.899Z,10.10
2019-03-12T17:02:38.375Z,10.00
2019-03-12T17:07:41.755Z,9.90
2019-03-12T17:12:45.136Z,9.70
2019-03-12T17:17:48.520Z,9.60
2019-03-12T17:22:51.924Z,9.50
2019-03-12T17:27:55.314Z,9.30
2019-03-12T17:32:58.696Z,9.20
2019-03-12T17:38:02.082Z,9.10
2019-03-12T17:43:05.459Z,9.00
2019-03-12T17:48:08.855Z,8.90
2019-03-12T17:53:12.235Z,8.80
2019-03-12T17:58:15.635Z,8.70
2019-03-12T18:03:19.007Z,8.60
2019-03-12T18:08:22.394Z,8.50
2019-03-12T18:13:25.784Z,8.40
2019-03-12T18:18:29.165Z,8.30
2019-03-12T18:23:32.588Z,8.20
2019-03-12T18:28:35.988Z,8.10
2019-03-12T18:33:39.367Z,8.10
2019-03-12T18:38:42.748Z,7.90
2019-03-12T18:43:46.138Z,7.80
2019-03-12T18:48:49.523Z,7.70
2019-03-12T18:53:52.908Z,7.60
2019-03-12T18:58:56.307Z,7.60
2019-03-12T19:03:59.711Z,7.50
2019-03-12T19:09:04.767Z,7.40
2019-03-12T19:14:08.159Z,7.30
2019-03-12T19:19:11.554Z,7.20
2019-03-12T19:24:14.938Z,7.10
2019-03-12T19:29:18.403Z,7.00
2019-03-12T19:34:23.430Z,6.90
2019-03-12T19:39:26.805Z,6.90
2019-03-12T19:44:30.188Z,6.80
2019-03-12T19:49:33.583Z,6.70
2019-03-12T19:54:36.976Z,6.60
2019-03-12T19:59:40.381Z,6.50
2019-03-12T20:04:47.361Z,6.50
2019-03-12T20:09:51.201Z,6.50
2019-03-12T20:15:30.606Z,6.40
2019-03-12T20:20:54.826Z,6.30
2019-03-12T20:26:34.226Z,6.20
2019-03-12T20:31:49.352Z,6.20
2019-03-12T20:37:13.693Z,6.10
2019-03-12T20:42:51.659Z,6.10
2019-03-12T20:48:31.104Z,6.00
2019-03-12T20:54:08.797Z,5.90
2019-03-12T20:59:20.753Z,5.80
2019-03-12T21:04:32.978Z,5.80
2019-03-12T21:10:13.312Z,5.70
2019-03-12T21:15:34.345Z,5.60
2019-03-12T21:21:12.886Z,5.60
2019-03-12T21:26:38.709Z,5.40
2019-03-12T21:31:42.162Z,5.40
2019-03-12T21:36:45.620Z,5.30
2019-03-12T21:41:49.025Z,5.20
2019-03-12T21:46:52.412Z,5.20
2019-03-12T21:51:55.800Z,5.20
2019-03-12T21:56:59.371Z,5.10
2019-03-12T22:02:02.816Z,5.10
2019-03-12T22:07:06.227Z,5.00
2019-03-12T22:12:09.613Z,5.00
2019-03-12T22:17:13.042Z,4.90
2019-03-12T22:22:18.082Z,4.90
2019-03-12T22:27:21.469Z,4.90
2019-03-12T22:32:24.851Z,4.90
2019-03-12T22:37:28.236Z,4.90
2019-03-12T22:42:31.621Z,4.80
2019-03-12T22:47:35.003Z,4.80
2019-03-12T22:52:38.396Z,4.80
2019-03-12T22:57:41.777Z,4.80
2019-03-12T23:02:45.232Z,4.70
2019-03-12T23:07:48.625Z,4.70
2019-03-12T23:12:52.010Z,4.70
2019-03-12T23:17:55.395Z,4.60
2019-03-12T23:22:58.791Z,4.60
2019-03-12T23:28:02.170Z,4.60
2019-03-12T23:33:05.639Z,4.60
2019-03-12T23:38:09.012Z,4.60
2019-03-12T23:43:12.387Z,4.60
2019-03-12T23:48:15.768Z,4.60
2019-03-12T23:53:19.154Z,4.50
2019-03-12T23:58:25.598Z,4.50
